Data for 12/16/2017

Time Sea-Level Adjusted Pressure Absolute Pressure Temperature Relative Humidity Dew Point   
(mb) (inHg) (mb) (inHg) (C) (F) (%) (C) (F)
00:05 1014 29.94 843 24.89 -1.9 28.6 91 -3.2 26.3
00:10 1014 29.94 843 24.89 -1.9 28.7 91 -3.1 26.4
00:15 1014 29.94 843 24.89 -1.9 28.7 91 -3.1 26.4
00:20 1014 29.94 843 24.89 -1.8 28.7 91 -3.1 26.5
00:25 1014 29.94 843 24.89 -1.8 28.7 92 -3 26.5
00:30 1014 29.94 843 24.89 -1.8 28.7 92 -3 26.7
00:35 1014 29.94 843 24.89 -1.8 28.8 92 -2.9 26.8
00:40 1014 29.94 843 24.89 -1.8 28.8 92 -2.9 26.8
00:45 1014 29.94 843 24.89 -1.8 28.8 92 -2.9 26.8
00:50 1014 29.94 843 24.89 -1.7 28.9 92 -2.8 27
00:55 1014 29.94 843 24.89 -1.7 28.9 92 -2.8 26.9
01:00 1013 29.91 843 24.89 -1.8 28.8 92 -2.9 26.8
01:05 1014 29.94 843 24.89 -1.8 28.8 92 -2.9 26.8
01:10 1014 29.94 843 24.89 -1.8 28.7 93 -2.9 26.8
01:15 1014 29.94 843 24.89 -1.8 28.7 93 -2.9 26.8
01:20 1014 29.94 843 24.89 -1.8 28.7 93 -2.9 26.9
01:25 1014 29.94 843 24.89 -1.8 28.8 93 -2.8 27
01:30 1014 29.94 843 24.89 -1.7 28.9 93 -2.8 27
01:35 1014 29.94 843 24.89 -1.7 28.9 93 -2.7 27.1
01:40 1014 29.94 843 24.89 -1.7 28.9 93 -2.7 27.1
01:45 1014 29.94 843 24.89 -1.7 28.9 93 -2.7 27.1
01:50 1014 29.94 843 24.89 -1.6 29 93 -2.6 27.3
01:55 1014 29.94 843 24.89 -1.6 29.1 93 -2.6 27.3
02:00 1014 29.94 843 24.89 -1.6 29.1 93 -2.6 27.3
02:05 1014 29.94 843 24.89 -1.6 29.1 93 -2.6 27.3
02:10 1014 29.94 843 24.89 -1.6 29.1 93 -2.6 27.4
02:15 1014 29.94 843 24.89 -1.6 29.1 93 -2.6 27.4
02:20 1014 29.94 843 24.89 -1.6 29.2 93 -2.5 27.4
02:25 1014 29.94 843 24.89 -1.5 29.2 93 -2.5 27.5
02:30 1014 29.94 843 24.89 -1.5 29.3 93 -2.5 27.6
02:35 1014 29.94 843 24.89 -1.5 29.3 93 -2.5 27.6
02:40 1014 29.94 843 24.89 -1.5 29.2 93 -2.5 27.5
02:45 1014 29.94 843 24.89 -1.6 29.2 93 -2.5 27.5
02:50 1014 29.94 843 24.89 -1.6 29.2 93 -2.5 27.5
02:55 1014 29.94 843 24.89 -1.5 29.3 93 -2.5 27.6
03:00 1014 29.94 843 24.89 -1.4 29.4 93 -2.4 27.7
03:05 1014 29.94 843 24.89 -1.4 29.4 93 -2.4 27.7
03:10 1014 29.94 843 24.89 -1.5 29.3 93 -2.4 27.6
03:15 1013 29.91 843 24.89 -1.6 29.1 93 -2.5 27.4
03:20 1013 29.91 843 24.89 -1.6 29.1 93 -2.6 27.4
03:25 1013 29.91 843 24.89 -1.6 29.1 94 -2.5 27.5
03:30 1013 29.91 843 24.89 -1.6 29.2 94 -2.5 27.6
03:35 1013 29.91 843 24.89 -1.4 29.4 94 -2.3 27.8
03:40 1013 29.91 843 24.89 -1.4 29.5 94 -2.3 27.9
03:45 1013 29.91 843 24.89 -1.3 29.6 94 -2.2 28
03:50 1013 29.91 843 24.89 -1.3 29.7 94 -2.2 28
03:55 1013 29.91 843 24.89 -1.3 29.7 94 -2.2 28
04:00 1013 29.91 843 24.89 -1.3 29.7 94 -2.2 28.1
04:05 1013 29.91 843 24.89 -1.3 29.7 94 -2.2 28.1
04:10 1013 29.91 843 24.89 -1.2 29.8 93 -2.2 28.1
04:15 1013 29.91 842 24.86 -1.3 29.7 94 -2.2 28.1
04:20 1013 29.91 842 24.86 -1.3 29.7 94 -2.2 28.1
04:25 1013 29.91 843 24.89 -1.2 29.8 94 -2.1 28.2
04:30 1013 29.91 843 24.89 -1.2 29.9 94 -2.1 28.3
04:35 1013 29.91 843 24.89 -1.2 29.9 93 -2.1 28.2
04:40 1013 29.91 843 24.89 -1.2 29.9 93 -2.1 28.2
04:45 1014 29.94 843 24.89 -1.2 29.8 93 -2.2 28.1
04:50 1014 29.94 843 24.89 -1.3 29.7 93 -2.2 28
04:55 1014 29.94 843 24.89 -1.3 29.7 93 -2.3 27.9
05:00 1014 29.94 843 24.89 -1.3 29.6 93 -2.3 27.9
05:05 1014 29.94 843 24.89 -1.4 29.6 93 -2.3 27.8
05:10 1014 29.94 843 24.89 -1.3 29.6 93 -2.3 27.9
05:15 1014 29.94 843 24.89 -1.3 29.6 93 -2.3 27.8
05:20 1014 29.94 843 24.89 -1.4 29.5 93 -2.3 27.8
05:25 1014 29.94 843 24.89 -1.4 29.4 93 -2.4 27.6
05:30 1014 29.94 843 24.89 -1.5 29.4 93 -2.5 27.6
05:35 1014 29.94 843 24.89 -1.5 29.4 93 -2.5 27.5
05:40 1014 29.94 843 24.89 -1.5 29.4 93 -2.5 27.5
05:45 1014 29.94 843 24.89 -1.5 29.4 93 -2.5 27.5
05:50 1014 29.94 843 24.89 -1.5 29.2 93 -2.6 27.3
05:55 1014 29.94 843 24.89 -1.6 29 93 -2.7 27.1
06:00 1014 29.94 844 24.92 -1.7 28.9 93 -2.8 27
06:05 1014 29.94 844 24.92 -1.7 28.9 93 -2.8 27
06:10 1014 29.94 844 24.92 -1.8 28.8 93 -2.8 26.9
06:15 1014 29.94 844 24.92 -1.8 28.8 93 -2.8 26.9
06:20 1015 29.97 844 24.92 -1.8 28.8 93 -2.8 27
06:25 1015 29.97 844 24.92 -1.8 28.8 92 -2.9 26.9
06:30 1015 29.97 844 24.92 -1.8 28.7 92 -2.9 26.8
06:35 1015 29.97 844 24.92 -1.8 28.7 92 -2.9 26.8
06:40 1015 29.97 844 24.92 -1.9 28.6 92 -3 26.6
06:45 1015 29.97 844 24.92 -2 28.4 92 -3.1 26.4
06:50 1015 29.97 844 24.92 -2.1 28.2 92 -3.2 26.3
06:55 1015 29.97 844 24.92 -2.1 28.1 92 -3.2 26.2
07:00 1015 29.97 844 24.92 -2.2 28.1 93 -3.2 26.2
07:05 1015 29.97 844 24.92 -2.1 28.2 93 -3.2 26.3
07:10 1015 29.97 844 24.92 -2.1 28.2 92 -3.2 26.2
07:15 1015 29.97 844 24.92 -2.2 28.1 92 -3.2 26.2
07:20 1015 29.97 844 24.92 -2.1 28.2 93 -3.2 26.3
07:25 1015 29.97 844 24.92 -2.1 28.3 92 -3.1 26.4
07:30 1015 29.97 844 24.92 -2 28.5 92 -3 26.6
07:35 1015 29.97 844 24.92 -1.9 28.7 92 -3 26.7
07:40 1015 29.97 844 24.92 -1.8 28.8 92 -2.9 26.8
07:45 1015 29.97 844 24.92 -1.8 28.8 92 -2.9 26.8
07:50 1015 29.97 844 24.92 -1.8 28.8 92 -3 26.6
07:55 1015 29.97 844 24.92 -1.8 28.8 92 -3 26.6
08:00 1015 29.97 844 24.92 -1.8 28.7 92 -3 26.7
08:05 1015 29.97 844 24.92 -1.7 28.9 92 -2.9 26.8
08:10 1015 29.97 844 24.92 -1.6 29.1 91 -2.9 26.8
08:15 1015 29.97 844 24.92 -1.7 29 92 -2.9 26.9
08:20 1015 29.97 845 24.95 -1.6 29.1 92 -2.8 27
08:25 1015 29.97 845 24.95 -1.4 29.4 91 -2.7 27.2
08:30 1015 29.97 845 24.95 -1.3 29.7 91 -2.6 27.3
08:35 1015 29.97 845 24.95 -1 30.1 90 -2.4 27.6
08:40 1015 29.97 845 24.95 -0.9 30.5 89 -2.4 27.7
08:45 1015 29.97 845 24.95 -0.7 30.8 88 -2.4 27.6
08:50 1015 29.97 845 24.95 -0.7 30.7 87 -2.6 27.4
08:55 1016 30 845 24.95 -0.8 30.6 87 -2.6 27.3
09:00 1016 30 845 24.95 -0.7 30.7 87 -2.5 27.4
09:05 1016 30 845 24.95 -0.7 30.8 88 -2.5 27.5
09:10 1016 30 845 24.95 -0.8 30.6 87 -2.6 27.3
09:15 1016 30 845 24.95 -0.8 30.5 88 -2.6 27.3
09:20 1016 30 845 24.95 -0.8 30.6 88 -2.5 27.5
09:25 1016 30 845 24.95 -0.8 30.6 88 -2.5 27.5
09:30 1016 30 845 24.95 -0.8 30.6 89 -2.5 27.6
09:35 1016 30 845 24.95 -0.8 30.5 88 -2.5 27.5
09:40 1016 30 845 24.95 -0.9 30.4 88 -2.6 27.3
09:45 1016 30 845 24.95 -0.9 30.3 89 -2.5 27.4
09:50 1016 30 845 24.95 -0.8 30.5 88 -2.6 27.4
09:55 1016 30 845 24.95 -0.8 30.5 88 -2.6 27.2
10:00 1016 30 845 24.95 -0.8 30.5 88 -2.5 27.5
10:05 1016 30 845 24.95 -0.8 30.6 88 -2.5 27.5
10:10 1016 30 845 24.95 -0.8 30.6 88 -2.6 27.4
10:15 1016 30 845 24.95 -0.9 30.4 88 -2.6 27.3
10:20 1016 30 845 24.95 -0.9 30.3 88 -2.7 27.1
10:25 1016 30 845 24.95 -1 30.3 88 -2.7 27.2
10:30 1016 30 845 24.95 -0.9 30.4 88 -2.6 27.2
10:35 1016 30 845 24.95 -0.9 30.3 88 -2.7 27.1
10:40 1016 30 845 24.95 -1 30.2 88 -2.7 27.1
10:45 1016 30 845 24.95 -1.1 30 88 -2.8 26.9
10:50 1016 30 845 24.95 -1.1 30 88 -2.8 26.9
10:55 1016 30 845 24.95 -1.2 29.9 89 -2.8 26.9
11:00 1016 30 845 24.95 -1.1 30 89 -2.8 27
11:05 1016 30 845 24.95 -1.1 30.1 88 -2.7 27.1
11:10 1016 30 845 24.95 -1 30.2 88 -2.8 27
11:15 1016 30 845 24.95 -1 30.2 88 -2.8 27
11:20 1016 30 845 24.95 -1 30.1 88 -2.8 27
11:25 1016 30 845 24.95 -1.3 29.7 88 -3 26.6
11:30 1016 30 845 24.95 -1.4 29.5 88 -3.1 26.4
11:35 1016 30 845 24.95 -1.5 29.4 89 -3.1 26.5
11:40 1016 30 845 24.95 -1.5 29.4 89 -3.1 26.5
11:45 1016 30 845 24.95 -1.5 29.4 89 -3.1 26.4
11:50 1016 30 845 24.95 -1.5 29.3 89 -3.1 26.4
11:55 1016 30 845 24.95 -1.6 29.1 89 -3.2 26.2
12:00 1016 30 845 24.95 -1.7 29 89 -3.2 26.2
12:05 1016 30 845 24.95 -1.7 29 89 -3.3 26.1
12:10 1016 30 845 24.95 -1.7 29 89 -3.3 26.1
12:15 1016 30 845 24.95 -1.7 29 89 -3.2 26.2
12:20 1016 30 845 24.95 -1.6 29.2 89 -3.2 26.3
12:25 1016 30 845 24.95 -1.6 29.1 89 -3.2 26.2
12:30 1016 30 845 24.95 -1.6 29 89 -3.3 26.1
12:35 1016 30 845 24.95 -1.6 29.1 89 -3.2 26.2
12:40 1016 30 845 24.95 -1.6 29.1 89 -3.3 26.1
12:45 1016 30 845 24.95 -1.6 29.1 89 -3.2 26.2
12:50 1016 30 845 24.95 -1.6 29.1 89 -3.2 26.3
12:55 1016 30 845 24.95 -1.7 29 89 -3.2 26.2
13:00 1016 30 845 24.95 -1.7 28.9 89 -3.3 26
13:05 1016 30 845 24.95 -1.7 28.9 90 -3.2 26.2
13:10 1016 30 846 24.98 -1.6 29.1 89 -3.1 26.3
13:15 1016 30 846 24.98 -1.6 29 89 -3.2 26.2
13:20 1016 30 846 24.98 -1.7 29 89 -3.3 26.1
13:25 1016 30 846 24.98 -1.7 28.9 89 -3.3 26.1
13:30 1016 30 846 24.98 -1.6 29.1 89 -3.2 26.2
13:35 1016 30 846 24.98 -1.7 29 88 -3.4 25.9
13:40 1017 30.03 846 24.98 -1.7 28.9 88 -3.5 25.7
13:45 1017 30.03 846 24.98 -1.9 28.6 89 -3.5 25.6
13:50 1017 30.03 846 24.98 -1.9 28.5 89 -3.5 25.7
13:55 1017 30.03 846 24.98 -1.9 28.6 89 -3.5 25.8
14:00 1017 30.03 846 24.98 -1.9 28.5 89 -3.5 25.8
14:05 1017 30.03 846 24.98 -2 28.4 89 -3.6 25.5
14:10 1017 30.03 846 24.98 -2.1 28.2 89 -3.7 25.3
14:15 1017 30.03 846 24.98 -2.1 28.2 89 -3.7 25.4
14:20 1017 30.03 846 24.98 -2.1 28.2 89 -3.7 25.3
14:25 1017 30.03 846 24.98 -2.2 28 89 -3.8 25.2
14:30 1017 30.03 846 24.98 -2.2 28 89 -3.8 25.2
14:35 1017 30.03 846 24.98 -2.3 27.9 89 -3.9 25
14:40 1017 30.03 846 24.98 -2.3 27.8 89 -3.9 24.9
14:45 1017 30.03 846 24.98 -2.3 27.8 89 -3.9 24.9
14:50 1017 30.03 846 24.98 -2.4 27.8 89 -3.9 24.9
14:55 1017 30.03 846 24.98 -2.3 27.8 89 -3.9 24.9
15:00 1017 30.03 846 24.98 -2.4 27.7 89 -3.9 24.9
15:05 1017 30.03 847 25.01 -2.4 27.7 89 -3.9 24.9
15:10 1017 30.03 847 25.01 -2.4 27.6 88 -4.1 24.6
15:15 1017 30.03 847 25.01 -2.6 27.3 88 -4.3 24.3
15:20 1017 30.03 847 25.01 -2.6 27.3 88 -4.3 24.3
15:25 1017 30.03 847 25.01 -2.6 27.3 88 -4.3 24.3
15:30 1017 30.03 847 25.01 -2.6 27.3 88 -4.3 24.3
15:35 1018 30.06 847 25.01 -2.6 27.2 88 -4.4 24.1
15:40 1018 30.06 847 25.01 -2.7 27.1 88 -4.5 23.9
15:45 1018 30.06 847 25.01 -2.9 26.7 88 -4.6 23.7
15:50 1018 30.06 847 25.01 -2.9 26.7 88 -4.7 23.6
15:55 1018 30.06 847 25.01 -3.1 26.5 89 -4.7 23.6
16:00 1018 30.06 847 25.01 -3.2 26.3 89 -4.7 23.5
16:05 1018 30.06 847 25.01 -3.2 26.2 89 -4.8 23.3
16:10 1018 30.06 847 25.01 -3.3 26.1 89 -4.8 23.3
16:15 1018 30.06 847 25.01 -3.2 26.2 89 -4.8 23.3
16:20 1018 30.06 847 25.01 -3.2 26.3 88 -4.8 23.3
16:25 1018 30.06 847 25.01 -3.2 26.2 88 -4.9 23.2
16:30 1018 30.06 847 25.01 -3.3 26.1 88 -5 23
16:35 1018 30.06 847 25.01 -3.2 26.2 87 -5 22.9
16:40 1018 30.06 847 25.01 -3.2 26.2 87 -5.1 22.8
16:45 1018 30.06 847 25.01 -3.2 26.2 86 -5.2 22.7
16:50 1018 30.06 847 25.01 -3.2 26.3 86 -5.2 22.6
16:55 1018 30.06 847 25.01 -3.2 26.3 86 -5.3 22.5
17:00 1018 30.06 847 25.01 -3.2 26.2 85 -5.4 22.2
17:05 1018 30.06 847 25.01 -3.3 26.1 84 -5.6 22
17:10 1018 30.06 847 25.01 -3.2 26.2 84 -5.6 22
17:15 1018 30.06 847 25.01 -3.2 26.2 83 -5.6 21.8
17:20 1018 30.06 848 25.04 -3.2 26.2 83 -5.7 21.7
17:25 1018 30.06 848 25.04 -3.2 26.2 83 -5.7 21.7
17:30 1018 30.06 848 25.04 -3.2 26.2 83 -5.7 21.8
17:35 1018 30.06 848 25.04 -3.3 26.1 83 -5.8 21.6
17:40 1018 30.06 848 25.04 -3.2 26.2 83 -5.8 21.6
17:45 1018 30.06 848 25.04 -3.2 26.2 83 -5.7 21.7
17:50 1018 30.06 848 25.04 -3.1 26.4 82 -5.8 21.5
17:55 1018 30.06 848 25.04 -3 26.6 81 -5.9 21.4
18:00 1019 30.09 848 25.04 -3 26.6 81 -5.8 21.5
18:05 1019 30.09 848 25.04 -3 26.5 81 -5.8 21.5
18:10 1019 30.09 848 25.04 -3 26.6 81 -5.9 21.4
18:15 1019 30.09 848 25.04 -3 26.5 81 -5.9 21.3
18:20 1019 30.09 848 25.04 -3.1 26.5 80 -6 21.3
18:25 1019 30.09 848 25.04 -3.1 26.4 80 -6 21.2
18:30 1019 30.09 848 25.04 -3 26.5 80 -6 21.1
18:35 1019 30.09 848 25.04 -3 26.6 79 -6.1 21
18:40 1019 30.09 848 25.04 -3 26.6 80 -6 21.1
18:45 1019 30.09 848 25.04 -3 26.6 78 -6.3 20.7
18:50 1019 30.09 848 25.04 -3 26.5 78 -6.4 20.4
18:55 1019 30.09 848 25.04 -3 26.5 78 -6.4 20.4
19:00 1019 30.09 848 25.04 -3 26.6 78 -6.4 20.5
19:05 1019 30.09 848 25.04 -3.1 26.4 78 -6.5 20.4
19:10 1019 30.09 848 25.04 -3.3 26.2 78 -6.5 20.3
19:15 1019 30.09 848 25.04 -3.3 26.1 78 -6.6 20.1
19:20 1019 30.09 848 25.04 -3.3 26.1 78 -6.6 20
19:25 1019 30.09 848 25.04 -3.4 25.9 78 -6.8 19.8
19:30 1019 30.09 848 25.04 -3.7 25.4 79 -6.9 19.6
19:35 1019 30.09 848 25.04 -3.9 25 79 -7 19.4
19:40 1019 30.09 848 25.04 -4.1 24.6 82 -6.8 19.8
19:45 1019 30.09 848 25.04 -4.4 24.2 83 -6.8 19.8
19:50 1019 30.09 848 25.04 -4.5 24 84 -6.8 19.7
19:55 1019 30.09 848 25.04 -4.4 24 83 -6.9 19.6
20:00 1019 30.09 848 25.04 -4.5 23.9 83 -7 19.4
20:05 1019 30.09 848 25.04 -4.6 23.7 83 -7 19.3
20:10 1019 30.09 848 25.04 -4.7 23.5 84 -7 19.4
20:15 1019 30.09 848 25.04 -4.9 23.2 85 -7.1 19.3
20:20 1019 30.09 848 25.04 -5.1 22.9 85 -7.2 19.1
20:25 1019 30.09 848 25.04 -5.2 22.7 85 -7.3 18.9
20:30 1019 30.09 848 25.04 -5.3 22.5 85 -7.3 18.8
20:35 1019 30.09 848 25.04 -5.3 22.5 86 -7.3 18.8
20:40 1019 30.09 848 25.04 -5.2 22.6 85 -7.3 18.8
20:45 1019 30.09 848 25.04 -5.1 22.7 84 -7.4 18.7
20:50 1019 30.09 848 25.04 -5.2 22.6 84 -7.5 18.4
20:55 1019 30.09 848 25.04 -5.2 22.6 83 -7.6 18.3
21:00 1018 30.06 848 25.04 -5.3 22.5 83 -7.7 18.2
21:05 1018 30.06 848 25.04 -5.4 22.3 84 -7.8 18
21:10 1018 30.06 848 25.04 -5.5 22.1 84 -7.8 17.9
21:15 1019 30.09 848 25.04 -5.6 22 84 -7.9 17.7
21:20 1019 30.09 848 25.04 -5.6 22 83 -8 17.6
21:25 1019 30.09 848 25.04 -5.6 22 82 -8.1 17.4
21:30 1019 30.09 848 25.04 -5.5 22.1 83 -8 17.5
21:35 1019 30.09 848 25.04 -5.6 22 83 -8 17.6
21:40 1019 30.09 848 25.04 -5.6 21.9 83 -8.1 17.4
21:45 1019 30.09 848 25.04 -5.7 21.7 83 -8.1 17.4
21:50 1019 30.09 848 25.04 -5.8 21.6 83 -8.2 17.2
21:55 1019 30.09 848 25.04 -5.5 22 81 -8.4 16.9
22:00 1019 30.09 848 25.04 -5.3 22.4 79 -8.4 16.9
22:05 1019 30.09 848 25.04 -5.4 22.3 80 -8.3 17
22:10 1019 30.09 848 25.04 -5.7 21.7 81 -8.5 16.8
22:15 1019 30.09 848 25.04 -6.3 20.7 84 -8.6 16.5
22:20 1019 30.09 848 25.04 -6.5 20.3 84 -8.8 16.2
22:25 1019 30.09 848 25.04 -6.6 20.1 84 -8.9 15.9
22:30 1019 30.09 848 25.04 -6.9 19.7 83 -9.3 15.3
22:35 1019 30.09 848 25.04 -6.7 19.9 82 -9.3 15.2
22:40 1019 30.09 848 25.04 -6.5 20.4 79 -9.4 15
22:45 1019 30.09 848 25.04 -6.5 20.3 80 -9.5 14.9
22:50 1019 30.09 848 25.04 -6.7 19.9 81 -9.5 14.9
22:55 1019 30.09 848 25.04 -7 19.5 83 -9.5 15
23:00 1019 30.09 848 25.04 -7.1 19.2 83 -9.6 14.8
23:05 1019 30.09 848 25.04 -7.2 19.1 82 -9.8 14.4
23:10 1019 30.09 848 25.04 -7.1 19.1 80 -10 13.9
23:15 1019 30.09 848 25.04 -6.9 19.6 78 -10.2 13.7
23:20 1018 30.06 848 25.04 -7 19.4 78 -10.2 13.7
23:25 1018 30.06 848 25.04 -7 19.4 78 -10.3 13.5
23:30 1018 30.06 848 25.04 -7.1 19.2 77 -10.5 13
23:35 1018 30.06 848 25.04 -7 19.3 76 -10.6 13
23:40 1018 30.06 848 25.04 -7.2 19.1 78 -10.3 13.4
23:45 1018 30.06 847 25.01 -7.5 18.5 79 -10.6 12.9
23:50 1018 30.06 847 25.01 -7.7 18.2 77 -11 12.1
23:55 1018 30.06 847 25.01 -7.9 17.7 78 -11.1 12
24:00 1018 30.06 847 25.01 -8 17.6 79 -11 12.1